createdAt,value
2022-10-30T00:00:20.265Z,88.82
2022-10-30T00:05:42.970Z,88.84
2022-10-30T00:11:11.421Z,88.67
2022-10-30T00:16:31.697Z,88.88
2022-10-30T00:21:51.805Z,88.98
2022-10-30T00:27:12.282Z,89.07
2022-10-30T00:32:32.782Z,89.30
2022-10-30T00:37:53.456Z,89.30
2022-10-30T00:43:38.603Z,89.22
2022-10-30T00:49:13.938Z,89.28
2022-10-30T00:54:36.477Z,89.09
2022-10-30T00:59:57.423Z,89.28
2022-10-30T01:05:22.537Z,89.14
2022-10-30T01:10:43.687Z,89.09
2022-10-30T01:16:25.033Z,88.72
2022-10-30T01:22:07.545Z,89.09
2022-10-30T01:27:54.076Z,88.93
2022-10-30T01:33:30.528Z,89.08
2022-10-30T01:38:55.637Z,89.00
2022-10-30T01:44:20.186Z,88.99
2022-10-30T01:50:36.171Z,89.36
2022-10-30T01:56:02.951Z,89.11
2022-10-30T02:01:25.438Z,89.10
2022-10-30T02:06:46.006Z,89.50
2022-10-30T02:12:08.395Z,89.52
2022-10-30T02:17:29.655Z,89.41
2022-10-30T02:22:53.130Z,89.52
2022-10-30T02:28:16.856Z,89.65
2022-10-30T02:33:37.416Z,89.82
2022-10-30T02:39:01.838Z,89.99
2022-10-30T02:44:24.646Z,90.07
2022-10-30T02:49:45.145Z,89.99
2022-10-30T02:55:06.014Z,89.84
2022-10-30T03:00:26.760Z,89.90
2022-10-30T03:05:47.466Z,89.65
2022-10-30T03:11:12.203Z,89.62
2022-10-30T03:16:33.563Z,89.41
2022-10-30T03:21:54.685Z,89.46
2022-10-30T03:27:15.337Z,89.26
2022-10-30T03:32:36.150Z,89.56
2022-10-30T03:37:58.021Z,89.51
2022-10-30T03:43:19.279Z,89.66
2022-10-30T03:48:39.869Z,89.69
2022-10-30T03:54:00.549Z,89.82
2022-10-30T03:59:21.185Z,89.95
2022-10-30T04:05:01.179Z,89.64
2022-10-30T04:10:23.877Z,89.87
2022-10-30T04:15:51.018Z,89.78
2022-10-30T04:21:16.565Z,90.23
2022-10-30T04:26:37.003Z,90.11
2022-10-30T04:31:59.219Z,90.34
2022-10-30T04:37:19.754Z,90.05
2022-10-30T04:42:41.282Z,90.45
2022-10-30T04:48:03.831Z,90.20
2022-10-30T04:53:25.717Z,90.16
2022-10-30T04:58:53.395Z,89.99
2022-10-30T05:04:14.216Z,90.40
2022-10-30T05:09:35.392Z,90.32
2022-10-30T05:14:55.988Z,90.30
2022-10-30T05:20:19.041Z,90.23
2022-10-30T05:25:39.713Z,90.45
2022-10-30T05:31:02.093Z,90.48
2022-10-30T05:36:54.486Z,90.47
2022-10-30T05:42:15.600Z,90.48
2022-10-30T05:47:38.694Z,90.47
2022-10-30T05:53:01.885Z,90.31
2022-10-30T05:58:22.916Z,90.60
2022-10-30T06:03:43.949Z,90.36
2022-10-30T06:09:05.472Z,90.58
2022-10-30T06:14:34.211Z,91.11
2022-10-30T06:19:54.821Z,90.77
2022-10-30T06:25:40.736Z,90.64
2022-10-30T06:31:16.088Z,90.92
2022-10-30T06:36:37.471Z,90.81
2022-10-30T06:41:59.063Z,90.58
2022-10-30T06:47:38.884Z,90.48
2022-10-30T06:52:59.367Z,90.36
2022-10-30T06:58:20.025Z,90.31
2022-10-30T07:03:45.954Z,90.58
2022-10-30T07:09:06.643Z,89.87
2022-10-30T07:14:27.734Z,89.70
2022-10-30T07:20:11.359Z,89.51
2022-10-30T07:25:31.948Z,89.51
2022-10-30T07:31:11.179Z,89.45
2022-10-30T07:36:54.061Z,89.43
2022-10-30T07:42:20.528Z,89.31
2022-10-30T07:47:59.808Z,89.12
2022-10-30T07:53:39.322Z,89.20
2022-10-30T07:59:01.498Z,88.92
2022-10-30T08:04:32.068Z,89.23
2022-10-30T08:10:01.327Z,89.51
2022-10-30T08:15:22.145Z,89.79
2022-10-30T08:20:45.813Z,90.19
2022-10-30T08:26:06.610Z,90.35
2022-10-30T08:31:29.811Z,90.20
2022-10-30T08:37:13.529Z,90.18
2022-10-30T08:42:34.962Z,89.67
2022-10-30T08:48:06.113Z,89.43
2022-10-30T08:53:31.021Z,89.46
2022-10-30T08:58:52.152Z,89.08
2022-10-30T09:04:13.017Z,88.83
2022-10-30T09:10:06.136Z,88.14
2022-10-30T09:15:28.521Z,87.93
2022-10-30T09:20:49.985Z,87.46
2022-10-30T09:26:12.729Z,87.18
2022-10-30T09:31:44.064Z,86.49
2022-10-30T09:37:08.546Z,85.55
2022-10-30T09:42:46.977Z,85.39
2022-10-30T09:48:14.134Z,84.20
2022-10-30T09:54:24.833Z,83.77
2022-10-30T10:00:08.572Z,82.45
2022-10-30T10:05:48.779Z,73.50
2022-10-30T10:11:45.241Z,70.84
2022-10-30T10:17:13.115Z,72.86
2022-10-30T10:22:40.827Z,72.63
2022-10-30T10:28:20.770Z,70.89
2022-10-30T10:34:17.627Z,69.92
2022-10-30T10:40:04.182Z,67.67
2022-10-30T10:45:52.539Z,66.07
2022-10-30T10:51:18.093Z,64.66
2022-10-30T10:56:42.103Z,64.34
2022-10-30T11:02:05.523Z,62.41
2022-10-30T11:07:37.045Z,61.44
2022-10-30T11:12:58.135Z,61.93
2022-10-30T11:18:18.479Z,62.11
2022-10-30T11:23:44.077Z,60.54
2022-10-30T11:29:18.674Z,59.28
2022-10-30T11:34:39.171Z,59.42
2022-10-30T11:40:07.342Z,58.87
2022-10-30T11:45:29.433Z,58.75
2022-10-30T11:50:51.888Z,58.42
2022-10-30T11:56:20.059Z,57.17
2022-10-30T12:01:58.488Z,56.85
2022-10-30T12:07:24.381Z,55.99
2022-10-30T12:12:45.088Z,54.13
2022-10-30T12:18:08.651Z,55.93
2022-10-30T12:23:29.481Z,57.01
2022-10-30T12:28:57.334Z,57.29
2022-10-30T12:34:27.031Z,57.44
2022-10-30T12:40:00.018Z,55.28
2022-10-30T12:45:31.910Z,55.65
2022-10-30T12:50:58.453Z,57.21
2022-10-30T12:56:25.091Z,58.39
2022-10-30T13:01:51.811Z,59.83
2022-10-30T13:12:58.922Z,64.85
2022-10-30T13:18:21.966Z,65.88
2022-10-30T13:23:51.426Z,67.50
2022-10-30T13:29:20.199Z,68.05
2022-10-30T13:35:04.973Z,69.06
2022-10-30T13:40:35.703Z,69.04
2022-10-30T13:46:04.828Z,69.90
2022-10-30T13:51:39.403Z,69.78
2022-10-30T13:57:35.942Z,69.67
2022-10-30T14:03:11.272Z,69.86
2022-10-30T14:08:58.236Z,70.83
2022-10-30T14:14:32.007Z,71.01
2022-10-30T14:20:08.797Z,71.22
2022-10-30T14:25:34.096Z,71.80
2022-10-30T14:31:06.767Z,71.91
2022-10-30T14:36:39.528Z,72.72
2022-10-30T14:42:18.758Z,72.89
2022-10-30T14:47:41.988Z,73.59
2022-10-30T14:53:12.712Z,74.29
2022-10-30T14:58:36.438Z,74.62
2022-10-30T15:04:10.381Z,75.01
2022-10-30T15:09:49.536Z,74.98
2022-10-30T15:15:14.037Z,75.52
2022-10-30T15:20:35.491Z,75.71
2022-10-30T15:25:58.989Z,76.04
2022-10-30T15:31:27.462Z,76.01
2022-10-30T15:36:47.969Z,76.69
2022-10-30T15:42:09.678Z,76.84
2022-10-30T15:47:30.405Z,77.19
2022-10-30T15:52:52.252Z,77.38
2022-10-30T15:58:17.337Z,78.14
2022-10-30T16:03:38.193Z,78.11
2022-10-30T16:08:58.647Z,78.63
2022-10-30T16:14:24.678Z,78.62
2022-10-30T16:19:51.701Z,79.06
2022-10-30T16:25:12.965Z,79.22
2022-10-30T16:30:34.122Z,79.56
2022-10-30T16:35:56.021Z,79.75
2022-10-30T16:41:22.669Z,79.59
2022-10-30T16:47:02.070Z,80.25
2022-10-30T16:52:30.768Z,80.29
2022-10-30T16:57:57.005Z,80.60
2022-10-30T17:03:23.782Z,80.65
2022-10-30T17:08:44.512Z,80.85
2022-10-30T17:14:17.424Z,81.17
2022-10-30T17:19:45.127Z,81.43
2022-10-30T17:25:30.293Z,81.59
2022-10-30T17:30:50.849Z,81.75
2022-10-30T17:36:11.144Z,81.75
2022-10-30T17:41:31.627Z,82.00
2022-10-30T17:46:51.995Z,81.93
2022-10-30T17:52:19.985Z,82.25
2022-10-30T17:57:40.669Z,82.27
2022-10-30T18:03:01.933Z,82.29
2022-10-30T18:08:23.073Z,82.49
2022-10-30T18:13:43.412Z,82.77
2022-10-30T18:19:04.686Z,82.81
2022-10-30T18:24:25.242Z,82.71
2022-10-30T18:29:45.458Z,82.71
2022-10-30T18:35:13.646Z,83.29
2022-10-30T18:40:34.806Z,83.36
2022-10-30T18:45:55.242Z,83.59
2022-10-30T18:51:24.679Z,83.43
2022-10-30T18:56:45.202Z,83.76
2022-10-30T19:02:25.071Z,84.19
2022-10-30T19:07:45.893Z,84.10
2022-10-30T19:13:15.343Z,84.22
2022-10-30T19:18:36.943Z,84.42
2022-10-30T19:24:01.033Z,84.44
2022-10-30T19:29:21.641Z,84.09
2022-10-30T19:34:45.726Z,84.35
2022-10-30T19:40:25.886Z,84.60
2022-10-30T19:45:49.071Z,84.78
2022-10-30T19:51:13.321Z,84.66
2022-10-30T19:56:33.771Z,84.86
2022-10-30T20:01:54.453Z,85.07
2022-10-30T20:07:15.090Z,84.99
2022-10-30T20:12:35.696Z,85.01
2022-10-30T20:17:57.825Z,85.34
2022-10-30T20:23:20.105Z,85.21
2022-10-30T20:28:42.632Z,85.20
2022-10-30T20:34:03.178Z,85.08
2022-10-30T20:39:23.679Z,84.86
2022-10-30T20:44:44.611Z,84.95
2022-10-30T20:50:05.430Z,85.52
2022-10-30T20:55:25.844Z,85.41
2022-10-30T21:00:46.600Z,85.40
2022-10-30T21:06:09.776Z,85.45
2022-10-30T21:11:30.113Z,85.32
2022-10-30T21:16:50.466Z,85.64
2022-10-30T21:22:10.741Z,85.59
2022-10-30T21:27:30.950Z,85.79
2022-10-30T21:32:51.289Z,85.75
2022-10-30T21:38:11.543Z,85.63
2022-10-30T21:43:31.681Z,85.81
2022-10-30T21:48:51.989Z,85.91
2022-10-30T21:54:12.573Z,85.97
2022-10-30T21:59:33.389Z,85.92
2022-10-30T22:04:53.874Z,86.24
2022-10-30T22:10:14.330Z,86.00
2022-10-30T22:15:34.838Z,85.99
2022-10-30T22:21:06.013Z,86.05
2022-10-30T22:26:27.027Z,85.76
2022-10-30T22:31:47.099Z,85.66
2022-10-30T22:37:08.209Z,85.50
2022-10-30T22:42:28.473Z,85.56
2022-10-30T22:47:48.979Z,85.66
2022-10-30T22:53:09.359Z,85.48
2022-10-30T22:58:30.304Z,85.81
2022-10-30T23:03:52.064Z,85.96
2022-10-30T23:09:17.473Z,86.10
2022-10-30T23:14:38.074Z,85.79
2022-10-30T23:19:58.406Z,86.11
2022-10-30T23:25:18.852Z,86.00
2022-10-30T23:30:42.895Z,86.19
2022-10-30T23:36:04.093Z,86.44
2022-10-30T23:41:28.900Z,86.14
2022-10-30T23:46:49.466Z,86.17
2022-10-30T23:52:09.634Z,86.10
2022-10-30T23:57:29.897Z,86.11
